createdAt,value
2023-02-27T00:01:40.586Z,100866.16
2023-02-27T00:04:07.011Z,100875.72
2023-02-27T00:06:33.431Z,100874.66
2023-02-27T00:09:00.214Z,100867.94
2023-02-27T00:11:27.045Z,100871.59
2023-02-27T00:13:53.733Z,100866.63
2023-02-27T00:16:20.179Z,100872.94
2023-02-27T00:18:46.621Z,100866.84
2023-02-27T00:21:13.009Z,100868.53
2023-02-27T00:23:39.362Z,100872.06
2023-02-27T00:26:05.702Z,100875.44
2023-02-27T00:28:32.079Z,100863.44
2023-02-27T00:30:58.552Z,100865.38
2023-02-27T00:33:25.000Z,100872.44
2023-02-27T00:35:58.888Z,100870.91
2023-02-27T00:38:26.238Z,100870.78
2023-02-27T00:40:52.606Z,100873.50
2023-02-27T00:43:18.999Z,100865.81
2023-02-27T00:45:45.542Z,100871.00
2023-02-27T00:48:11.892Z,100873.59
2023-02-27T00:50:38.586Z,100871.75
2023-02-27T00:53:05.221Z,100875.25
2023-02-27T00:55:31.680Z,100876.31
2023-02-27T00:57:58.074Z,100872.69
2023-02-27T01:00:24.870Z,100874.53
2023-02-27T01:02:51.225Z,100873.59
2023-02-27T01:05:18.166Z,100871.94
2023-02-27T01:07:44.509Z,100868.44
2023-02-27T01:10:11.905Z,100873.72
2023-02-27T01:12:38.793Z,100869.53
2023-02-27T01:15:06.715Z,100876.53
2023-02-27T01:17:33.379Z,100867.06
2023-02-27T01:19:59.776Z,100868.84
2023-02-27T01:22:26.199Z,100868.03
2023-02-27T01:24:52.579Z,100869.00
2023-02-27T01:27:19.040Z,100869.00
2023-02-27T01:29:45.493Z,100865.56
2023-02-27T01:32:11.956Z,100865.56
2023-02-27T01:34:38.360Z,100860.38
2023-02-27T01:37:04.749Z,100856.00
2023-02-27T01:39:32.888Z,100858.69
2023-02-27T01:42:00.932Z,100862.84
2023-02-27T01:44:29.943Z,100856.81
2023-02-27T01:46:57.209Z,100855.28
2023-02-27T01:49:29.065Z,100857.94
2023-02-27T01:52:02.952Z,100862.97
2023-02-27T01:54:32.039Z,100857.75
2023-02-27T01:56:58.603Z,100861.50
2023-02-27T01:59:25.049Z,100877.09
2023-02-27T02:01:52.211Z,100872.00
2023-02-27T02:04:27.782Z,100879.94
2023-02-27T02:06:59.746Z,100877.63
2023-02-27T02:09:27.671Z,100881.84
2023-02-27T02:11:54.990Z,100882.88
2023-02-27T02:14:21.616Z,100884.72
2023-02-27T02:17:07.059Z,100886.50
2023-02-27T02:19:55.316Z,100888.19
2023-02-27T02:22:59.116Z,100892.53
2023-02-27T02:26:03.308Z,100890.94
2023-02-27T02:29:12.733Z,100894.59
2023-02-27T02:32:21.178Z,100890.31
2023-02-27T02:35:17.074Z,100888.50
2023-02-27T02:38:14.505Z,100895.53
2023-02-27T02:41:07.604Z,100895.50
2023-02-27T02:43:58.273Z,100894.81
2023-02-27T02:46:38.920Z,100898.34
2023-02-27T02:49:26.773Z,100899.94
2023-02-27T02:52:02.743Z,100902.69
2023-02-27T02:54:42.014Z,100903.53
2023-02-27T02:57:16.628Z,100897.72
2023-02-27T02:59:56.923Z,100902.78
2023-02-27T03:02:31.131Z,100911.28
2023-02-27T03:05:08.547Z,100908.59
2023-02-27T03:07:44.097Z,100918.63
2023-02-27T03:10:30.478Z,100914.38
2023-02-27T03:13:02.790Z,100916.19
2023-02-27T03:15:36.335Z,100914.47
2023-02-27T03:18:08.523Z,100914.47
2023-02-27T03:20:42.706Z,100908.78
2023-02-27T03:23:14.036Z,100909.75
2023-02-27T03:25:46.050Z,100910.38
2023-02-27T03:28:19.267Z,100923.47
2023-02-27T03:30:53.359Z,100921.28
2023-02-27T03:33:31.718Z,100915.47
2023-02-27T03:36:04.121Z,100923.38
2023-02-27T03:38:34.710Z,100922.22
2023-02-27T03:41:37.522Z,100927.28
2023-02-27T03:44:04.008Z,100928.25
2023-02-27T03:46:30.752Z,100937.63
2023-02-27T03:48:57.150Z,100925.63
2023-02-27T03:51:25.301Z,100930.75
2023-02-27T03:54:06.699Z,100932.63
2023-02-27T03:56:40.690Z,100934.34
2023-02-27T03:59:07.838Z,100934.25
2023-02-27T04:01:34.456Z,100934.34
2023-02-27T04:04:06.990Z,100939.34
2023-02-27T04:06:54.833Z,100935.94
2023-02-27T04:09:33.041Z,100930.63
2023-02-27T04:12:26.788Z,100935.13
2023-02-27T04:15:23.041Z,100934.19
2023-02-27T04:18:15.605Z,100937.63
2023-02-27T04:20:44.823Z,100941.75
2023-02-27T04:23:23.552Z,100949.75
2023-02-27T04:25:53.184Z,100942.88
2023-02-27T04:28:36.158Z,100953.22
2023-02-27T04:31:25.067Z,100954.94
2023-02-27T04:33:56.290Z,100949.84
2023-02-27T04:36:35.800Z,100951.38
2023-02-27T04:39:08.458Z,100945.22
2023-02-27T04:41:43.323Z,100939.16
2023-02-27T04:44:12.419Z,100938.00
2023-02-27T04:46:42.763Z,100930.84
2023-02-27T04:49:21.506Z,100940.28
2023-02-27T04:52:06.584Z,100953.25
2023-02-27T04:54:46.697Z,100954.19
2023-02-27T04:57:20.778Z,100950.78
2023-02-27T04:59:52.546Z,100954.34
2023-02-27T05:02:29.522Z,100960.97
2023-02-27T05:05:00.504Z,100952.41
2023-02-27T05:07:33.563Z,100965.53
2023-02-27T05:10:05.662Z,100964.69
2023-02-27T05:12:38.395Z,100970.81
2023-02-27T05:15:12.107Z,100978.59
2023-02-27T05:17:47.621Z,100984.19
2023-02-27T05:20:15.737Z,100998.13
2023-02-27T05:22:49.492Z,101000.88
2023-02-27T05:25:26.884Z,101000.25
2023-02-27T05:28:17.597Z,100995.47
2023-02-27T05:30:53.026Z,100992.16
2023-02-27T05:33:33.166Z,100987.19
2023-02-27T05:36:02.287Z,100995.91
2023-02-27T05:38:36.855Z,100990.91
2023-02-27T05:41:14.392Z,100990.91
2023-02-27T05:43:50.625Z,100995.91
2023-02-27T05:46:23.996Z,100997.69
2023-02-27T05:48:56.121Z,101005.69
2023-02-27T05:51:28.034Z,101002.22
2023-02-27T05:54:03.024Z,100997.66
2023-02-27T05:56:32.639Z,101005.78
2023-02-27T05:59:06.334Z,101006.69
2023-02-27T06:01:33.398Z,101002.56
2023-02-27T06:03:59.833Z,101019.41
2023-02-27T06:06:26.657Z,101033.88
2023-02-27T06:08:53.484Z,101028.00
2023-02-27T06:11:19.882Z,101026.03
2023-02-27T06:13:46.225Z,101033.19
2023-02-27T06:16:14.525Z,101033.47
2023-02-27T06:18:40.955Z,101038.75
2023-02-27T06:21:07.282Z,101036.34
2023-02-27T06:23:33.662Z,101039.78
2023-02-27T06:26:00.249Z,101033.78
2023-02-27T06:28:26.961Z,101034.44
2023-02-27T06:30:57.194Z,101043.09
2023-02-27T06:33:25.909Z,101045.47
2023-02-27T06:35:52.606Z,101041.84
2023-02-27T06:38:19.021Z,101045.16
2023-02-27T06:40:45.372Z,101040.03
2023-02-27T06:43:11.758Z,101042.28
2023-02-27T06:45:38.219Z,101043.19
2023-02-27T06:48:04.724Z,101051.47
2023-02-27T06:50:31.197Z,101045.44
2023-02-27T06:52:57.555Z,101045.47
2023-02-27T06:55:25.611Z,101042.53
2023-02-27T06:57:52.101Z,101046.91
2023-02-27T07:00:19.028Z,101051.84
2023-02-27T07:02:45.571Z,101043.47
2023-02-27T07:05:12.166Z,101043.34
2023-02-27T07:07:39.270Z,101048.41
2023-02-27T07:10:08.318Z,101046.47
2023-02-27T07:12:34.677Z,101050.69
2023-02-27T07:15:01.207Z,101049.19
2023-02-27T07:17:27.549Z,101047.81
2023-02-27T07:19:54.548Z,101056.44
2023-02-27T07:22:20.963Z,101046.59
2023-02-27T07:24:47.320Z,101042.44
2023-02-27T07:27:13.670Z,101042.03
2023-02-27T07:29:40.214Z,101044.91
2023-02-27T07:32:06.715Z,101042.53
2023-02-27T07:34:33.427Z,101043.34
2023-02-27T07:36:59.803Z,101053.66
2023-02-27T07:39:26.144Z,101049.56
2023-02-27T07:41:52.504Z,101042.09
2023-02-27T07:44:19.226Z,101043.53
2023-02-27T07:46:47.314Z,101050.47
2023-02-27T07:49:14.048Z,101050.50
2023-02-27T07:51:40.409Z,101041.69
2023-02-27T07:54:06.761Z,101051.16
2023-02-27T07:56:33.202Z,101049.56
2023-02-27T07:58:59.581Z,101051.06
2023-02-27T08:01:26.315Z,101059.50
2023-02-27T08:03:52.733Z,101052.00
2023-02-27T08:06:19.131Z,101059.50
2023-02-27T08:08:45.743Z,101065.19
2023-02-27T08:11:12.070Z,101069.94
2023-02-27T08:16:25.279Z,101071.06
2023-02-27T08:18:52.097Z,101075.38
2023-02-27T08:21:18.676Z,101078.94
2023-02-27T08:23:45.014Z,101088.03
2023-02-27T08:26:11.370Z,101091.81
2023-02-27T08:28:38.014Z,101083.13
2023-02-27T08:31:04.589Z,101090.84
2023-02-27T08:33:31.039Z,101092.22
2023-02-27T08:35:57.510Z,101082.34
2023-02-27T08:38:26.048Z,101082.16
2023-02-27T08:40:55.622Z,101097.88
2023-02-27T08:43:23.065Z,101097.88
2023-02-27T08:45:49.979Z,101100.69
2023-02-27T08:48:18.337Z,101099.59
2023-02-27T08:50:46.246Z,101099.25
2023-02-27T08:53:13.045Z,101101.13
2023-02-27T08:55:39.538Z,101098.88
2023-02-27T08:58:06.012Z,101093.41
2023-02-27T09:00:32.838Z,101096.59
2023-02-27T09:03:00.538Z,101098.88
2023-02-27T09:05:27.650Z,101104.56
2023-02-27T09:07:54.060Z,101108.69
2023-02-27T09:10:20.428Z,101105.44
2023-02-27T09:12:48.246Z,101111.00
2023-02-27T09:15:15.266Z,101109.31
2023-02-27T09:17:41.712Z,101111.44
2023-02-27T09:20:09.543Z,101110.34
2023-02-27T09:22:35.952Z,101099.44
2023-02-27T09:25:02.556Z,101115.94
2023-02-27T09:27:28.994Z,101122.03
2023-02-27T09:29:56.356Z,101121.03
2023-02-27T09:32:23.748Z,101114.25
2023-02-27T09:34:50.272Z,101126.25
2023-02-27T09:37:17.132Z,101124.31
2023-02-27T09:39:44.701Z,101127.72
2023-02-27T09:42:20.626Z,101113.19
2023-02-27T09:44:53.813Z,101123.91
2023-02-27T09:47:29.195Z,101123.03
2023-02-27T09:50:02.991Z,101122.94
2023-02-27T09:52:32.226Z,101125.78
2023-02-27T09:54:59.016Z,101126.16
2023-02-27T09:57:44.301Z,101125.63
2023-02-27T10:00:33.439Z,101119.78
2023-02-27T10:03:21.848Z,101122.28
2023-02-27T10:06:09.105Z,101120.78
2023-02-27T10:08:53.381Z,101115.66
2023-02-27T10:11:53.994Z,101118.13
2023-02-27T10:14:34.061Z,101120.88
2023-02-27T10:17:03.613Z,101131.03
2023-02-27T10:19:37.547Z,101129.41
2023-02-27T10:22:08.014Z,101129.94
2023-02-27T10:24:44.283Z,101139.72
2023-02-27T10:27:17.565Z,101132.44
2023-02-27T10:29:44.163Z,101145.91
2023-02-27T10:32:17.089Z,101142.75
2023-02-27T10:34:47.593Z,101144.59
2023-02-27T10:37:17.469Z,101133.31
2023-02-27T10:39:55.376Z,101136.88
2023-02-27T10:42:24.291Z,101134.13
2023-02-27T10:44:53.568Z,101136.44
2023-02-27T10:47:23.784Z,101142.25
2023-02-27T10:49:50.704Z,101139.72
2023-02-27T10:52:17.877Z,101153.59
2023-02-27T10:54:46.254Z,101147.44
2023-02-27T10:57:33.468Z,101143.34
2023-02-27T11:00:05.523Z,101144.31
2023-02-27T11:02:48.807Z,101142.69
2023-02-27T11:05:31.227Z,101136.88
2023-02-27T11:08:10.449Z,101131.66
2023-02-27T11:10:36.861Z,101128.59
2023-02-27T11:13:18.446Z,101129.25
2023-02-27T11:16:00.352Z,101127.28
2023-02-27T11:18:29.328Z,101115.81
2023-02-27T11:21:15.525Z,101126.16
2023-02-27T11:23:50.865Z,101124.63
2023-02-27T11:26:54.092Z,101118.63
2023-02-27T11:29:20.928Z,101120.91
2023-02-27T11:31:54.040Z,101107.81
2023-02-27T11:34:27.645Z,101109.34
2023-02-27T11:37:01.313Z,101112.09
2023-02-27T11:39:30.613Z,101111.25
2023-02-27T11:42:05.294Z,101109.94
2023-02-27T11:44:50.100Z,101108.44
2023-02-27T11:47:23.195Z,101104.84
2023-02-27T11:50:08.867Z,101108.53
2023-02-27T11:52:54.044Z,101100.97
2023-02-27T11:55:27.798Z,101099.19
2023-02-27T11:58:01.102Z,101093.81
2023-02-27T12:00:33.156Z,101098.25
2023-02-27T12:03:07.370Z,101086.19
2023-02-27T12:05:51.545Z,101093.22
2023-02-27T12:08:42.157Z,101086.28
2023-02-27T12:11:22.609Z,101091.38
2023-02-27T12:14:04.099Z,101087.22
2023-02-27T12:16:42.264Z,101089.00
2023-02-27T12:19:23.855Z,101090.53
2023-02-27T12:21:56.575Z,101079.94
2023-02-27T12:24:31.977Z,101087.22
2023-02-27T12:27:19.026Z,101082.09
2023-02-27T12:29:53.551Z,101080.28
2023-02-27T12:32:26.005Z,101077.50
2023-02-27T12:35:02.020Z,101084.19
2023-02-27T12:37:29.813Z,101082.97
2023-02-27T12:39:59.808Z,101081.88
2023-02-27T12:42:50.316Z,101084.28
2023-02-27T12:45:38.729Z,101090.34
2023-02-27T12:48:39.405Z,101087.22
2023-02-27T12:51:23.654Z,101092.75
2023-02-27T12:53:59.961Z,101086.59
2023-02-27T12:56:44.315Z,101091.47
2023-02-27T12:59:48.819Z,101084.31
2023-02-27T13:02:44.818Z,101080.91
2023-02-27T13:05:38.662Z,101085.38
2023-02-27T13:08:18.196Z,101088.06
2023-02-27T13:10:56.513Z,101084.47
2023-02-27T13:13:32.077Z,101075.38
2023-02-27T13:16:07.180Z,101075.53
2023-02-27T13:18:56.943Z,101074.44
2023-02-27T13:21:36.590Z,101073.50
2023-02-27T13:24:30.045Z,101069.94
2023-02-27T13:27:03.257Z,101078.47
2023-02-27T13:29:47.585Z,101077.25
2023-02-27T13:32:44.158Z,101075.06
2023-02-27T13:35:27.935Z,101070.03
2023-02-27T13:38:07.541Z,101073.03
2023-02-27T13:40:38.252Z,101070.63
2023-02-27T13:43:27.500Z,101068.09
2023-02-27T13:45:57.572Z,101075.13
2023-02-27T13:48:39.835Z,101074.81
2023-02-27T13:51:12.412Z,101066.66
2023-02-27T13:53:39.026Z,101078.56
2023-02-27T13:56:23.433Z,101082.34
2023-02-27T13:58:53.530Z,101079.97
2023-02-27T14:01:29.639Z,101078.97
2023-02-27T14:04:03.437Z,101081.34
2023-02-27T14:06:30.764Z,101089.56
2023-02-27T14:09:12.794Z,101082.03
2023-02-27T14:11:41.266Z,101078.22
2023-02-27T14:14:20.797Z,101078.28
2023-02-27T14:16:48.326Z,101078.09
2023-02-27T14:19:17.938Z,101074.00
2023-02-27T14:22:30.529Z,101090.06
2023-02-27T14:25:21.974Z,101081.66
2023-02-27T14:27:54.723Z,101077.56
2023-02-27T14:30:33.800Z,101069.88
2023-02-27T14:33:08.204Z,101078.25
2023-02-27T14:35:35.921Z,101078.03
2023-02-27T14:38:11.828Z,101072.88
2023-02-27T14:40:48.748Z,101073.56
2023-02-27T14:43:29.208Z,101076.59
2023-02-27T14:45:56.112Z,101084.13
2023-02-27T14:48:28.695Z,101092.31
2023-02-27T14:50:57.953Z,101085.19
2023-02-27T14:53:28.004Z,101094.13
2023-02-27T14:55:57.054Z,101094.78
2023-02-27T14:58:24.433Z,101094.00
2023-02-27T15:01:09.887Z,101095.28
2023-02-27T15:03:45.113Z,101108.69
2023-02-27T15:06:24.180Z,101101.75
2023-02-27T15:08:53.855Z,101106.44
2023-02-27T15:11:22.049Z,101111.47
2023-02-27T15:13:56.179Z,101105.00
2023-02-27T15:16:35.629Z,101112.53
2023-02-27T15:19:24.480Z,101109.63
2023-02-27T15:22:00.178Z,101109.22
2023-02-27T15:24:40.686Z,101116.53
2023-02-27T15:27:21.623Z,101116.69
2023-02-27T15:29:57.006Z,101128.38
2023-02-27T15:32:39.580Z,101125.28
2023-02-27T15:35:12.778Z,101132.66
2023-02-27T15:37:50.641Z,101134.78
2023-02-27T15:40:21.174Z,101151.34
2023-02-27T15:42:48.068Z,101155.16
2023-02-27T15:45:21.166Z,101155.44
2023-02-27T15:47:48.155Z,101154.03
2023-02-27T15:50:17.190Z,101158.25
2023-02-27T15:52:51.213Z,101155.94
2023-02-27T15:55:26.004Z,101150.91
2023-02-27T15:58:02.411Z,101146.81
2023-02-27T16:00:31.267Z,101154.84
2023-02-27T16:02:59.250Z,101147.06
2023-02-27T16:05:34.905Z,101159.19
2023-02-27T16:08:05.746Z,101164.94
2023-02-27T16:10:40.313Z,101171.09
2023-02-27T16:13:33.427Z,101169.25
2023-02-27T16:16:21.881Z,101166.97
2023-02-27T16:18:50.092Z,101171.22
2023-02-27T16:21:22.487Z,101166.84
2023-02-27T16:23:49.828Z,101176.38
2023-02-27T16:26:36.380Z,101180.94
2023-02-27T16:29:17.749Z,101181.25
2023-02-27T16:31:56.622Z,101182.53
2023-02-27T16:34:45.160Z,101188.59
2023-02-27T16:37:27.004Z,101189.69
2023-02-27T16:39:54.376Z,101189.50
2023-02-27T16:42:21.307Z,101199.16
2023-02-27T16:44:49.059Z,101192.00
2023-02-27T16:47:15.510Z,101193.81
2023-02-27T16:49:44.106Z,101195.13
2023-02-27T16:52:11.431Z,101192.91
2023-02-27T16:54:37.937Z,101200.94
2023-02-27T16:57:04.311Z,101204.13
2023-02-27T16:59:36.209Z,101197.47
2023-02-27T17:02:05.554Z,101205.59
2023-02-27T17:04:32.246Z,101209.63
2023-02-27T17:07:00.299Z,101213.94
2023-02-27T17:09:28.133Z,101211.13
2023-02-27T17:11:55.384Z,101211.69
2023-02-27T17:14:22.779Z,101210.16
2023-02-27T17:16:49.512Z,101212.50
2023-02-27T17:19:16.369Z,101223.91
2023-02-27T17:21:42.898Z,101219.78
2023-02-27T17:24:09.323Z,101218.94
2023-02-27T17:26:35.943Z,101223.41
2023-02-27T17:29:03.159Z,101227.44
2023-02-27T17:31:29.937Z,101224.00
2023-02-27T17:33:56.481Z,101234.56
2023-02-27T17:36:24.069Z,101231.13
2023-02-27T17:38:55.756Z,101233.66
2023-02-27T17:41:22.280Z,101235.47
2023-02-27T17:43:53.767Z,101223.38
2023-02-27T17:46:20.251Z,101230.38
2023-02-27T17:48:46.747Z,101231.31
2023-02-27T17:51:15.438Z,101228.50
2023-02-27T17:53:42.585Z,101237.59
2023-02-27T17:56:10.011Z,101233.38
2023-02-27T17:58:36.480Z,101237.06
2023-02-27T18:01:13.656Z,101240.44
2023-02-27T18:03:40.956Z,101237.69
2023-02-27T18:06:07.567Z,101234.31
2023-02-27T18:08:34.239Z,101235.19
2023-02-27T18:11:01.327Z,101244.16
2023-02-27T18:13:28.187Z,101237.94
2023-02-27T18:15:56.106Z,101235.47
2023-02-27T18:18:23.724Z,101237.19
2023-02-27T18:21:03.749Z,101240.69
2023-02-27T18:23:30.400Z,101240.06
2023-02-27T18:25:57.941Z,101236.53
2023-02-27T18:28:24.543Z,101244.38
2023-02-27T18:30:51.291Z,101238.50
2023-02-27T18:33:19.519Z,101243.31
2023-02-27T18:35:47.151Z,101243.56
2023-02-27T18:38:13.884Z,101236.06
2023-02-27T18:40:40.366Z,101235.34
2023-02-27T18:43:07.596Z,101240.81
2023-02-27T18:45:34.071Z,101243.28
2023-02-27T18:48:00.442Z,101245.78
2023-02-27T18:50:27.673Z,101237.78
2023-02-27T18:52:56.044Z,101239.56
2023-02-27T18:55:22.520Z,101237.59
2023-02-27T18:57:50.872Z,101248.34
2023-02-27T19:00:19.053Z,101246.03
2023-02-27T19:02:45.513Z,101243.16
2023-02-27T19:05:14.403Z,101246.97
2023-02-27T19:07:41.458Z,101247.88
2023-02-27T19:10:09.014Z,101239.22
2023-02-27T19:12:35.889Z,101250.25
2023-02-27T19:15:03.308Z,101253.38
2023-02-27T19:17:29.707Z,101250.25
2023-02-27T19:19:56.074Z,101258.66
2023-02-27T19:22:22.481Z,101255.00
2023-02-27T19:24:49.746Z,101256.97
2023-02-27T19:27:17.256Z,101257.22
2023-02-27T19:29:43.737Z,101251.34
2023-02-27T19:32:10.212Z,101255.03
2023-02-27T19:34:36.630Z,101255.16
2023-02-27T19:37:03.066Z,101255.16
2023-02-27T19:39:29.450Z,101253.56
2023-02-27T19:41:56.449Z,101251.88
2023-02-27T19:44:23.220Z,101260.75
2023-02-27T19:46:52.099Z,101257.34
2023-02-27T19:49:20.499Z,101263.50
2023-02-27T19:51:47.332Z,101262.69
2023-02-27T19:54:15.520Z,101269.72
2023-02-27T19:56:42.699Z,101262.81
2023-02-27T19:59:11.211Z,101262.94
2023-02-27T20:01:38.935Z,101267.34
2023-02-27T20:04:06.603Z,101271.84
2023-02-27T20:06:41.952Z,101271.94
2023-02-27T20:09:11.429Z,101273.75
2023-02-27T20:11:37.870Z,101277.25
2023-02-27T20:14:04.280Z,101268.66
2023-02-27T20:16:34.411Z,101273.75
2023-02-27T20:19:01.362Z,101277.38
2023-02-27T20:21:28.804Z,101275.44
2023-02-27T20:23:55.922Z,101277.25
2023-02-27T20:26:33.742Z,101282.47
2023-02-27T20:29:06.736Z,101279.94
2023-02-27T20:31:35.402Z,101280.91
2023-02-27T20:34:01.975Z,101273.97
2023-02-27T20:36:28.536Z,101273.97
2023-02-27T20:38:55.473Z,101273.97
2023-02-27T20:41:22.764Z,101277.38
2023-02-27T20:43:49.724Z,101275.66
2023-02-27T20:46:22.626Z,101275.66
2023-02-27T20:48:49.594Z,101272.22
2023-02-27T20:51:19.748Z,101276.59
2023-02-27T20:53:48.349Z,101283.50
2023-02-27T20:56:14.894Z,101270.44
2023-02-27T20:58:41.263Z,101273.97
2023-02-27T21:01:11.571Z,101274.84
2023-02-27T21:03:39.732Z,101269.59
2023-02-27T21:06:08.561Z,101268.66
2023-02-27T21:08:37.213Z,101268.66
2023-02-27T21:11:11.857Z,101279.94
2023-02-27T21:13:38.701Z,101279.09
2023-02-27T21:16:07.406Z,101279.09
2023-02-27T21:18:34.123Z,101279.09
2023-02-27T21:21:05.963Z,101281.69
2023-02-27T21:23:34.332Z,101280.78
2023-02-27T21:26:00.696Z,101279.09
2023-02-27T21:28:27.078Z,101280.78
2023-02-27T21:30:54.672Z,101282.47
2023-02-27T21:33:22.268Z,101284.31
2023-02-27T21:35:49.039Z,101293.81
2023-02-27T21:38:16.364Z,101279.94
2023-02-27T21:40:42.918Z,101282.47
2023-02-27T21:43:09.658Z,101285.16
2023-02-27T21:45:41.450Z,101285.94
2023-02-27T21:48:08.184Z,101284.19
2023-02-27T21:50:35.907Z,101282.53
2023-02-27T21:53:02.235Z,101286.84
2023-02-27T21:55:28.616Z,101286.78
2023-02-27T21:57:55.029Z,101283.03
2023-02-27T22:00:23.122Z,101282.38
2023-02-27T22:02:49.580Z,101280.59
2023-02-27T22:05:15.963Z,101287.59
2023-02-27T22:07:42.322Z,101285.88
2023-02-27T22:10:09.434Z,101289.41
2023-02-27T22:12:35.825Z,101291.09
2023-02-27T22:15:02.380Z,101292.81
2023-02-27T22:17:28.731Z,101290.28
2023-02-27T22:19:55.225Z,101292.91
2023-02-27T22:22:21.615Z,101293.59
2023-02-27T22:24:47.983Z,101292.81
2023-02-27T22:27:14.382Z,101300.56
2023-02-27T22:29:42.262Z,101292.81
2023-02-27T22:32:09.438Z,101304.94
2023-02-27T22:34:35.844Z,101300.66
2023-02-27T22:37:02.526Z,101287.59
2023-02-27T22:39:28.897Z,101298.81
2023-02-27T22:41:56.841Z,101293.69
2023-02-27T22:44:23.482Z,101292.81
2023-02-27T22:46:50.104Z,101295.41
2023-02-27T22:49:22.126Z,101292.81
2023-02-27T22:51:51.042Z,101294.50
2023-02-27T22:54:20.160Z,101292.81
2023-02-27T22:56:49.314Z,101291.88
2023-02-27T22:59:16.648Z,101289.03
2023-02-27T23:01:43.114Z,101290.84
2023-02-27T23:04:11.284Z,101290.97
2023-02-27T23:06:40.048Z,101289.28
2023-02-27T23:09:08.873Z,101291.09
2023-02-27T23:11:35.281Z,101298.13
2023-02-27T23:14:01.791Z,101290.19
2023-02-27T23:16:28.330Z,101298.03
2023-02-27T23:18:57.578Z,101293.69
2023-02-27T23:21:29.499Z,101291.16
2023-02-27T23:23:58.004Z,101298.13
2023-02-27T23:26:28.258Z,101296.31
2023-02-27T23:28:55.748Z,101298.03
2023-02-27T23:31:22.585Z,101300.66
2023-02-27T23:33:48.983Z,101308.47
2023-02-27T23:36:15.440Z,101304.88
2023-02-27T23:38:42.949Z,101313.69
2023-02-27T23:41:09.919Z,101310.16
2023-02-27T23:43:36.502Z,101311.09
2023-02-27T23:46:12.549Z,101311.09
2023-02-27T23:48:39.662Z,101303.25
2023-02-27T23:51:07.834Z,101312.81
2023-02-27T23:53:35.468Z,101310.16
2023-02-27T23:56:12.409Z,101304.94
2023-02-27T23:58:38.779Z,101305.78
